Crown Of Scandinavia — OXRA6 — position and weather

sailwx.info

Track history (hours):
 
Tides and Currents Weather Stations Pressure Air Temp Water Temp Dewpoint Dewpoint Depression Visibility Wind Speed Wind Dir Waves Ship Positions

Crown Of Scandinavia

Last reported at 2019-Jan-23 21:30 UTC. Time now 2019-Jan-23 21:51 UTC.
Position N 58°25' E 010°40'.

Length 171 m; draft 6.3 m.

Type: Ship. MMSI: 219592000.

Date/timePositionNaut miles runAvg speedWind from/ knotsBaromVisibWave heightAir tempDewpointWater temp
2019-Jan-23 21:30N 58°25' E 010°40'816.5
2019-Jan-23 21:00N 58°33' E 010°37'816.7
2019-Jan-23 20:30N 58°41' E 010°36'917.0
2019-Jan-23 20:00N 58°50' E 010°35'917.1
2019-Jan-23 19:30N 58°58' E 010°36'815.7
2019-Jan-23 19:00N 59°06' E 010°38'816.2
2019-Jan-23 18:30N 59°14' E 010°37'816.7
2019-Jan-23 18:00N 59°23' E 010°34'816.8
2019-Jan-23 17:30N 59°31' E 010°35'714.9
2019-Jan-23 17:00N 59°38' E 010°37'713.7
2019-Jan-23 16:30N 59°45' E 010°33'815.8
2019-Jan-23 16:01N 59°52' E 010°38'4 7.6
2019-Jan-23 15:30N 59°54' E 010°45'0 0.0
2019-Jan-23 15:00N 59°54' E 010°45'0 0.0
2019-Jan-23 14:30N 59°54' E 010°45'0 0.0
2019-Jan-23 14:00N 59°54' E 010°45'0 0.0
2019-Jan-23 13:30N 59°54' E 010°45'0 0.0
2019-Jan-23 13:00N 59°54' E 010°45'0 0.0
2019-Jan-23 12:30N 59°54' E 010°45'0 0.0
2019-Jan-23 12:00N 59°54' E 010°45'0 0.0
2019-Jan-23 11:30N 59°54' E 010°45'0 0.0
2019-Jan-23 11:00N 59°54' E 010°45'0 0.0
2019-Jan-23 10:30N 59°54' E 010°45'0 0.0
2019-Jan-23 10:00N 59°54' E 010°45'0 0.0
2019-Jan-23 09:30N 59°54' E 010°45'0 0.0
2019-Jan-23 09:00N 59°54' E 010°45'0 0.7
2019-Jan-23 08:30N 59°54' E 010°44'713.8
2019-Jan-23 08:01N 59°49' E 010°35'714.9
2019-Jan-23 07:31N 59°41' E 010°36'714.5
2019-Jan-23 07:00N 59°34' E 010°38'816.1
2019-Jan-23 06:30N 59°27' E 010°34'815.7
2019-Jan-23 06:00N 59°19' E 010°36'816.0
2019-Jan-23 05:30N 59°11' E 010°39'816.0
2019-Jan-23 05:00N 59°03' E 010°39'816.0
2019-Jan-23 04:30N 58°55' E 010°39'816.4
2019-Jan-23 04:00N 58°47' E 010°39'816.2
2019-Jan-23 03:29N 58°38' E 010°38'816.4
2019-Jan-23 03:00N 58°30' E 010°38'816.3
2019-Jan-23 02:30N 58°23' E 010°43'816.6
2019-Jan-23 02:00N 58°15' E 010°49'816.6
2019-Jan-23 01:30N 58°07' E 010°54'816.3
2019-Jan-23 01:00N 57°59' E 010°59'816.2
2019-Jan-23 00:30N 57°52' E 011°04'816.4
2019-Jan-23 00:00N 57°44' E 011°10'816.2
2019-Jan-22 23:30N 57°37' E 011°16'816.9
2019-Jan-22 23:00N 57°30' E 011°26'816.6
2019-Jan-22 22:30N 57°24' E 011°36'917.1
2019-Jan-22 22:00N 57°17' E 011°46'816.4
2019-Jan-22 21:30N 57°11' E 011°55'816.6
2019-Jan-22 21:00N 57°03' E 012°01'5516.6
2019-Jan-22 17:42N 56°10' E 012°30'418.7
2019-Jan-22 17:30N 56°07' E 012°33'917.5
2019-Jan-22 17:00N 55°60' E 012°41'816.9
2019-Jan-22 16:30N 55°52' E 012°45'815.5
2019-Jan-22 16:00N 55°44' E 012°40'3 6.5
2019-Jan-22 15:30N 55°42' E 012°36'0 0.0
2019-Jan-22 15:00N 55°42' E 012°36'0 0.0
2019-Jan-22 14:30N 55°42' E 012°36'0 0.0
2019-Jan-22 14:00N 55°42' E 012°36'0 0.0
2019-Jan-22 13:27N 55°42' E 012°36'0 0.0
2019-Jan-22 12:57N 55°42' E 012°36'0 0.0
2019-Jan-22 12:30N 55°42' E 012°36'0 0.0
2019-Jan-22 12:00N 55°42' E 012°36'0 0.0
2019-Jan-22 11:30N 55°42' E 012°36'0 0.0
2019-Jan-22 11:00N 55°42' E 012°36'0 0.0
2019-Jan-22 10:30N 55°42' E 012°36'0 0.0
2019-Jan-22 10:00N 55°42' E 012°36'0 0.0
2019-Jan-22 09:24N 55°42' E 012°36'0 0.0
2019-Jan-22 09:00N 55°42' E 012°36'0 0.7
2019-Jan-22 08:30N 55°42' E 012°36'510.8
2019-Jan-22 08:00N 55°47' E 012°42'714.8
2019-Jan-22 07:30N 55°54' E 012°39'815.0
2019-Jan-22 07:00N 56°02' E 012°40'713.9
2019-Jan-22 06:30N 56°07' E 012°32'5816.0
2019-Jan-22 02:52N 56°59' E 011°43'616.5
2019-Jan-22 02:30N 57°04' E 011°38'816.4
2019-Jan-22 02:00N 57°12' E 011°34'816.8
2019-Jan-22 01:30N 57°20' E 011°29'816.8
2019-Jan-22 01:00N 57°28' E 011°23'816.3
2019-Jan-22 00:30N 57°35' E 011°17'816.7
2019-Jan-22 00:00N 57°43' E 011°10'816.6
2019-Jan-21 23:30N 57°50' E 011°04'816.4
2019-Jan-21 23:00N 57°58' E 010°59'816.1
2019-Jan-21 22:30N 58°05' E 010°52'816.5
2019-Jan-21 22:00N 58°12' E 010°44'816.8
2019-Jan-21 21:30N 58°20' E 010°39'816.6
2019-Jan-21 21:00N 58°28' E 010°35'816.4
2019-Jan-21 20:30N 58°36' E 010°34'816.8
2019-Jan-21 20:00N 58°45' E 010°34'816.9
2019-Jan-21 19:30N 58°53' E 010°35'816.9
2019-Jan-21 19:00N 59°02' E 010°37'816.9
2019-Jan-21 18:30N 59°10' E 010°38'917.2
2019-Jan-21 18:00N 59°18' E 010°36'917.4
2019-Jan-21 17:30N 59°27' E 010°33'917.4
2019-Jan-21 17:00N 59°35' E 010°38'714.2
2019-Jan-21 16:30N 59°42' E 010°35'815.8
2019-Jan-21 16:00N 59°50' E 010°35'612.7
2019-Jan-21 15:30N 59°54' E 010°45'0 0.4
2019-Jan-21 14:58N 59°54' E 010°45'0 0.0
2019-Jan-21 14:28N 59°54' E 010°45'0 0.0
2019-Jan-21 13:58N 59°54' E 010°45'0 0.0
2019-Jan-21 13:28N 59°54' E 010°45'0 0.0
2019-Jan-21 12:58N 59°54' E 010°45'0 0.0
2019-Jan-21 12:28N 59°54' E 010°45'0 0.0
2019-Jan-21 11:58N 59°54' E 010°45'0 0.0
2019-Jan-21 11:28N 59°54' E 010°45'0 0.0
2019-Jan-21 10:58N 59°54' E 010°45'0 0.0
2019-Jan-21 10:28N 59°54' E 010°45'0 0.0
2019-Jan-21 09:58N 59°54' E 010°45'0 0.0
2019-Jan-21 09:28N 59°54' E 010°45'0 0.0
2019-Jan-21 08:58N 59°54' E 010°45'0 0.5
2019-Jan-21 08:30N 59°54' E 010°44'713.8
2019-Jan-21 08:00N 59°49' E 010°35'715.0
2019-Jan-21 07:31N 59°42' E 010°36'714.8
2019-Jan-21 07:00N 59°34' E 010°38'816.2
2019-Jan-21 06:30N 59°26' E 010°34'816.2
2019-Jan-21 06:00N 59°18' E 010°36'816.2
2019-Jan-21 05:30N 59°10' E 010°39'816.1
2019-Jan-21 05:00N 59°02' E 010°39'816.2
2019-Jan-21 04:31N 58°54' E 010°38'815.7
2019-Jan-21 04:00N 58°47' E 010°37'816.4
2019-Jan-21 03:29N 58°38' E 010°38'816.1
2019-Jan-21 03:00N 58°30' E 010°38'816.1
2019-Jan-21 02:30N 58°22' E 010°43'816.0
2019-Jan-21 02:00N 58°16' E 010°50'816.0
2019-Jan-21 01:30N 58°08' E 010°53'816.6
2019-Jan-21 01:00N 57°60' E 010°58'816.3
2019-Jan-21 00:30N 57°52' E 011°04'816.4
2019-Jan-21 00:00N 57°45' E 011°10'816.3
2019-Jan-20 23:30N 57°38' E 011°17'816.5
2019-Jan-20 23:01N 57°32' E 011°28'816.8
2019-Jan-20 22:30N 57°25' E 011°38'816.6
2019-Jan-20 22:01N 57°18' E 011°47'816.4
2019-Jan-20 21:30N 57°11' E 011°54'816.5
2019-Jan-20 21:01N 57°04' E 011°60'816.4
2019-Jan-20 20:30N 56°56' E 012°06'816.6
2019-Jan-20 20:00N 56°48' E 012°11'816.1
2019-Jan-20 19:30N 56°41' E 012°15'3216.2
2019-Jan-20 17:31N 56°09' E 012°29'017.9
2019-Jan-20 17:30N 56°09' E 012°29'917.6
2019-Jan-20 17:00N 56°03' E 012°40'917.2
2019-Jan-20 16:30N 55°54' E 012°44'816.7
2019-Jan-20 16:00N 55°46' E 012°42'510.6
2019-Jan-20 15:30N 55°42' E 012°36'0 0.0
2019-Jan-20 14:58N 55°42' E 012°36'0 0.0
2019-Jan-20 14:28N 55°42' E 012°36'0 0.0
2019-Jan-20 13:55N 55°42' E 012°36'0 0.0
2019-Jan-20 13:28N 55°42' E 012°36'0 0.0
2019-Jan-20 12:58N 55°42' E 012°36'0 0.0
2019-Jan-20 12:28N 55°42' E 012°36'0 0.0
2019-Jan-20 11:58N 55°42' E 012°36'0 0.0
2019-Jan-20 11:28N 55°42' E 012°36'0 0.0
2019-Jan-20 10:58N 55°42' E 012°36'0 0.0
2019-Jan-20 10:28N 55°42' E 012°36'0 0.0
2019-Jan-20 09:58N 55°42' E 012°36'0 0.0
2019-Jan-20 09:28N 55°42' E 012°36'0 0.0
2019-Jan-20 08:58N 55°42' E 012°36'0 0.7
2019-Jan-20 08:30N 55°42' E 012°36'510.5
2019-Jan-20 08:01N 55°47' E 012°41'714.5
2019-Jan-20 07:30N 55°54' E 012°39'714.7
2019-Jan-20 07:00N 56°01' E 012°40'713.9
2019-Jan-20 06:30N 56°07' E 012°32'814.9
2019-Jan-20 06:00N 56°12' E 012°24'4915.9
2019-Jan-20 02:54N 56°56' E 011°44'616.4
2019-Jan-20 02:31N 57°02' E 011°39'816.4
2019-Jan-20 02:00N 57°10' E 011°34'917.1
2019-Jan-20 01:31N 57°18' E 011°31'917.2
2019-Jan-20 01:01N 57°26' E 011°25'816.8
2019-Jan-20 00:31N 57°34' E 011°19'816.8
2019-Jan-20 00:01N 57°42' E 011°12'816.9
2019-Jan-19 23:31N 57°50' E 011°06'816.9
2019-Jan-19 23:01N 57°57' E 011°01'816.6
2019-Jan-19 22:31N 58°05' E 010°55'816.5
2019-Jan-19 22:00N 58°13' E 010°50'816.6
2019-Jan-19 21:30N 58°21' E 010°44'816.7
2019-Jan-19 21:00N 58°29' E 010°38'817.0
2019-Jan-19 20:30N 58°37' E 010°37'816.8
2019-Jan-19 20:01N 58°45' E 010°35'816.8
2019-Jan-19 19:31N 58°54' E 010°35'917.2
2019-Jan-19 19:01N 59°02' E 010°37'917.0
2019-Jan-19 18:30N 59°11' E 010°38'917.2
2019-Jan-19 18:00N 59°19' E 010°35'816.9
2019-Jan-19 17:31N 59°28' E 010°34'816.8
2019-Jan-19 17:01N 59°36' E 010°38'714.7
2019-Jan-19 16:31N 59°43' E 010°35'815.9
2019-Jan-19 16:00N 59°51' E 010°36'611.1
2019-Jan-19 15:30N 59°54' E 010°45'0 0.0
2019-Jan-19 15:00N 59°54' E 010°45'0 0.0
2019-Jan-19 14:30N 59°54' E 010°45'0 0.0
2019-Jan-19 14:00N 59°54' E 010°45'0 0.0
2019-Jan-19 13:30N 59°54' E 010°45'0 0.0
2019-Jan-19 13:00N 59°54' E 010°45'0 0.0
2019-Jan-19 12:30N 59°54' E 010°45'0 0.0
2019-Jan-19 12:00N 59°54' E 010°45'0 0.0
2019-Jan-19 11:30N 59°54' E 010°45'0 0.0
2019-Jan-19 11:00N 59°54' E 010°45'0 0.0
2019-Jan-19 10:30N 59°54' E 010°45'0 0.0
2019-Jan-19 10:00N 59°54' E 010°45'0 0.0
2019-Jan-19 09:30N 59°54' E 010°45'0 0.0
2019-Jan-19 09:00N 59°54' E 010°45'0 0.4
2019-Jan-19 08:30N 59°54' E 010°45'611.2
2019-Jan-19 08:01N 59°50' E 010°36'714.9
2019-Jan-19 07:31N 59°43' E 010°35'713.4
2019-Jan-19 07:00N 59°36' E 010°38'815.6
2019-Jan-19 06:30N 59°29' E 010°35'816.0
2019-Jan-19 06:00N 59°21' E 010°36'816.3
2019-Jan-19 05:30N 59°13' E 010°38'816.2
2019-Jan-19 05:00N 59°05' E 010°40'815.9
2019-Jan-19 04:30N 58°57' E 010°42'816.0
2019-Jan-19 04:00N 58°49' E 010°45'816.1
2019-Jan-19 03:30N 58°41' E 010°47'816.7
2019-Jan-19 03:00N 58°33' E 010°50'816.9
2019-Jan-19 02:30N 58°24' E 010°53'816.7
2019-Jan-19 02:00N 58°16' E 010°56'816.8
2019-Jan-19 01:30N 58°08' E 010°59'816.6
2019-Jan-19 01:00N 57°60' E 011°02'816.1
2019-Jan-19 00:30N 57°52' E 011°06'815.8
2019-Jan-19 00:00N 57°45' E 011°14'816.2
2019-Jan-18 23:30N 57°38' E 011°20'817.0
2019-Jan-18 23:00N 57°30' E 011°24'917.1
2019-Jan-18 22:30N 57°22' E 011°31'816.9
2019-Jan-18 22:00N 57°14' E 011°37'917.0
2019-Jan-18 21:30N 57°06' E 011°41'6216.3
2019-Jan-18 17:42N 56°10' E 012°29'316.4
2019-Jan-18 17:30N 56°07' E 012°32'816.1
2019-Jan-18 17:00N 56°01' E 012°41'816.5
2019-Jan-18 16:30N 55°53' E 012°45'815.8
2019-Jan-18 16:00N 55°45' E 012°41'4 8.1
2019-Jan-18 15:30N 55°42' E 012°36'0 0.0
2019-Jan-18 15:00N 55°42' E 012°36'0 0.0
2019-Jan-18 14:30N 55°42' E 012°36'0 0.0
2019-Jan-18 14:00N 55°42' E 012°36'0 0.0
2019-Jan-18 13:30N 55°42' E 012°36'0 0.0
2019-Jan-18 13:00N 55°42' E 012°36'0 0.0
2019-Jan-18 12:30N 55°42' E 012°36'0 0.0
2019-Jan-18 12:00N 55°42' E 012°36'0 0.0
2019-Jan-18 11:30N 55°42' E 012°36'0 0.0
2019-Jan-18 10:57N 55°42' E 012°36'0 0.0
2019-Jan-18 10:30N 55°42' E 012°36'0 0.0
2019-Jan-18 10:00N 55°42' E 012°36'0 0.0
2019-Jan-18 09:27N 55°42' E 012°36'0 0.0
2019-Jan-18 09:00N 55°42' E 012°36'0 0.8
2019-Jan-18 08:30N 55°42' E 012°36'612.2
2019-Jan-18 08:00N 55°48' E 012°42'815.2
2019-Jan-18 07:30N 55°55' E 012°39'714.9
2019-Jan-18 07:00N 56°02' E 012°39'714.8
2019-Jan-18 06:31N 56°08' E 012°30'815.2
2019-Jan-18 06:00N 56°15' E 012°25'6215.6
2019-Jan-18 02:02N 57°14' E 011°52'016.1
2019-Jan-18 02:00N 57°15' E 011°52'816.3
2019-Jan-18 01:30N 57°22' E 011°44'816.2
2019-Jan-18 01:00N 57°29' E 011°37'816.1
2019-Jan-18 00:30N 57°36' E 011°31'816.2
2019-Jan-18 00:00N 57°44' E 011°26'816.1
2019-Jan-17 23:30N 57°51' E 011°20'816.1
2019-Jan-17 23:00N 57°59' E 011°15'816.3
2019-Jan-17 22:30N 58°07' E 011°10'816.0
2019-Jan-17 22:00N 58°14' E 011°05'815.8
2019-Jan-17 21:30N 58°22' E 010°60'816.0
2019-Jan-17 21:00N 58°29' E 010°54'816.1
2019-Jan-17 20:30N 58°37' E 010°49'816.8
2019-Jan-17 20:00N 58°45' E 010°46'816.8
2019-Jan-17 19:30N 58°53' E 010°43'816.8
2019-Jan-17 19:00N 59°02' E 010°41'816.8
2019-Jan-17 18:30N 59°10' E 010°38'917.4
2019-Jan-17 18:00N 59°18' E 010°35'816.7
2019-Jan-17 17:30N 59°27' E 010°33'816.9
2019-Jan-17 17:00N 59°35' E 010°38'815.3
2019-Jan-17 16:30N 59°42' E 010°35'816.5
2019-Jan-17 16:00N 59°50' E 010°35'612.1
2019-Jan-17 15:30N 59°54' E 010°45'0 0.4
2019-Jan-17 15:00N 59°54' E 010°45'0 0.0
2019-Jan-17 14:30N 59°54' E 010°45'0 0.0
2019-Jan-17 14:00N 59°54' E 010°45'0 0.0
2019-Jan-17 13:30N 59°54' E 010°45'0 0.0
2019-Jan-17 13:00N 59°54' E 010°45'0 0.0
2019-Jan-17 12:30N 59°54' E 010°45'0 0.0
2019-Jan-17 12:00N 59°54' E 010°45'0 0.0
2019-Jan-17 11:30N 59°54' E 010°45'0 0.0
2019-Jan-17 11:00N 59°54' E 010°45'0 0.0
2019-Jan-17 10:30N 59°54' E 010°45'0 0.0
2019-Jan-17 10:00N 59°54' E 010°45'0 0.0
2019-Jan-17 09:30N 59°54' E 010°45'0 0.0
2019-Jan-17 09:00N 59°54' E 010°45'0 0.4
2019-Jan-17 08:30N 59°54' E 010°44'612.7
2019-Jan-17 08:00N 59°50' E 010°35'714.0
2019-Jan-17 07:30N 59°43' E 010°36'713.2
2019-Jan-17 07:00N 59°36' E 010°38'714.6
2019-Jan-17 06:30N 59°29' E 010°35'815.4
2019-Jan-17 06:00N 59°21' E 010°35'815.3
2019-Jan-17 05:30N 59°14' E 010°38'815.5
2019-Jan-17 05:01N 59°06' E 010°40'815.5
2019-Jan-17 04:30N 58°58' E 010°42'815.5
2019-Jan-17 04:00N 58°51' E 010°44'1615.5
2019-Jan-17 03:00N 58°35' E 010°50'815.9
2019-Jan-17 02:30N 58°28' E 010°55'816.8
2019-Jan-17 02:00N 58°20' E 010°60'917.2
2019-Jan-17 01:30N 58°12' E 011°06'917.2
2019-Jan-17 01:00N 58°04' E 011°11'816.9
2019-Jan-17 00:30N 57°56' E 011°17'816.2
2019-Jan-17 00:00N 57°49' E 011°22'815.9
2019-Jan-16 23:30N 57°41' E 011°28'816.6
2019-Jan-16 23:00N 57°33' E 011°30'917.1
2019-Jan-16 22:30N 57°24' E 011°32'816.9
2019-Jan-16 22:00N 57°16' E 011°35'817.0
2019-Jan-16 21:30N 57°08' E 011°40'6216.5
2019-Jan-16 17:47N 56°12' E 012°27'516.8
2019-Jan-16 17:30N 56°08' E 012°31'816.7
2019-Jan-16 17:00N 56°01' E 012°40'816.9
2019-Jan-16 16:30N 55°53' E 012°44'816.0
2019-Jan-16 16:00N 55°46' E 012°41'5 9.1
2019-Jan-16 15:30N 55°42' E 012°36'0 0.0
2019-Jan-16 15:00N 55°42' E 012°36'0 0.0
2019-Jan-16 14:30N 55°42' E 012°36'0 0.0
2019-Jan-16 13:57N 55°42' E 012°36'0 0.0
2019-Jan-16 13:30N 55°42' E 012°36'0 0.0
2019-Jan-16 13:00N 55°42' E 012°36'0 0.0
2019-Jan-16 12:30N 55°42' E 012°36'0 0.0
2019-Jan-16 12:00N 55°42' E 012°36'0 0.0
2019-Jan-16 11:27N 55°42' E 012°36'0 0.0
2019-Jan-16 11:00N 55°42' E 012°36'0 0.0
2019-Jan-16 10:21N 55°42' E 012°36'0 0.0
2019-Jan-16 10:00N 55°42' E 012°36'0 0.0
2019-Jan-16 09:30N 55°42' E 012°36'0 0.0
2019-Jan-16 08:54N 55°42' E 012°36'1 2.9
2019-Jan-16 08:30N 55°43' E 012°38'713.3
2019-Jan-16 08:00N 55°49' E 012°41'815.7
2019-Jan-16 07:30N 55°57' E 012°38'914.3
2019-Jan-16 06:52N 56°06' E 012°34'616.2
2019-Jan-16 06:29N 56°11' E 012°28'6516.4
2019-Jan-16 02:32N 57°13' E 011°53'016.8
2019-Jan-16 02:30N 57°13' E 011°52'816.5
2019-Jan-16 02:00N 57°20' E 011°44'816.5
2019-Jan-16 01:30N 57°27' E 011°36'816.6
2019-Jan-16 01:00N 57°34' E 011°27'816.6
2019-Jan-16 00:30N 57°41' E 011°19'816.7
2019-Jan-16 00:00N 57°48' E 011°11'816.8
2019-Jan-15 23:30N 57°55' E 011°02'816.2
2019-Jan-15 23:00N 58°03' E 010°57'816.1
2019-Jan-15 22:30N 58°10' E 010°51'816.4
2019-Jan-15 22:00N 58°18' E 010°46'816.1
2019-Jan-15 21:30N 58°26' E 010°40'815.9
2019-Jan-15 21:00N 58°33' E 010°37'816.1
2019-Jan-15 20:30N 58°41' E 010°36'815.8
2019-Jan-15 20:00N 58°49' E 010°35'816.2
2019-Jan-15 19:30N 58°57' E 010°36'815.8
2019-Jan-15 19:00N 59°05' E 010°37'816.1
2019-Jan-15 18:30N 59°13' E 010°37'816.3
2019-Jan-15 18:00N 59°21' E 010°34'815.9
2019-Jan-15 17:30N 59°29' E 010°34'815.7
2019-Jan-15 17:00N 59°37' E 010°38'815.1
2019-Jan-15 16:30N 59°44' E 010°33'816.0
2019-Jan-15 16:00N 59°52' E 010°37'4 8.6
2019-Jan-15 15:30N 59°54' E 010°45'0 0.0
2019-Jan-15 15:00N 59°54' E 010°45'0 0.0
2019-Jan-15 14:30N 59°54' E 010°45'0 0.0
2019-Jan-15 14:00N 59°54' E 010°45'0 0.0
2019-Jan-15 13:30N 59°54' E 010°45'0 0.0
2019-Jan-15 13:00N 59°54' E 010°45'0 0.0
2019-Jan-15 12:30N 59°54' E 010°45'0 0.0
2019-Jan-15 12:00N 59°54' E 010°45'0 0.0
2019-Jan-15 11:30N 59°54' E 010°45'0 0.0
2019-Jan-15 11:00N 59°54' E 010°45'0 0.0
2019-Jan-15 10:30N 59°54' E 010°45'0 0.0
2019-Jan-15 10:00N 59°54' E 010°45'0 0.0
2019-Jan-15 09:30N 59°54' E 010°45'0 0.0
2019-Jan-15 09:00N 59°54' E 010°45'1 1.9
2019-Jan-15 08:30N 59°54' E 010°43'815.1
2019-Jan-15 08:00N 59°48' E 010°35'714.5
2019-Jan-15 07:31N 59°40' E 010°37'714.3
2019-Jan-15 07:01N 59°33' E 010°37'816.1
2019-Jan-15 06:31N 59°25' E 010°34'816.0
2019-Jan-15 06:01N 59°17' E 010°37'816.3
2019-Jan-15 05:31N 59°09' E 010°40'816.9
2019-Jan-15 05:01N 59°01' E 010°42'917.4
2019-Jan-15 04:31N 58°52' E 010°44'917.6
2019-Jan-15 04:00N 58°44' E 010°45'917.1
2019-Jan-15 03:30N 58°35' E 010°49'917.4
2019-Jan-15 03:00N 58°27' E 010°54'917.5
2019-Jan-15 02:30N 58°19' E 010°59'917.4
2019-Jan-15 02:01N 58°11' E 011°05'917.2
2019-Jan-15 01:31N 58°02' E 011°10'816.8
2019-Jan-15 01:01N 57°54' E 011°14'816.4
2019-Jan-15 00:31N 57°46' E 011°18'816.1
2019-Jan-15 00:01N 57°39' E 011°22'816.1
2019-Jan-14 23:31N 57°31' E 011°26'815.9
2019-Jan-14 23:01N 57°23' E 011°31'816.1
2019-Jan-14 22:31N 57°16' E 011°35'815.7
2019-Jan-14 22:01N 57°08' E 011°40'916.0
2019-Jan-14 21:28N 57°00' E 011°46'5415.3
2019-Jan-14 17:57N 56°12' E 012°28'714.7
2019-Jan-14 17:30N 56°06' E 012°34'714.0
2019-Jan-14 17:01N 56°01' E 012°41'815.2
2019-Jan-14 16:31N 55°53' E 012°44'815.7
2019-Jan-14 16:01N 55°46' E 012°41'5 9.2
2019-Jan-14 15:30N 55°42' E 012°36'0 0.0
2019-Jan-14 15:00N 55°42' E 012°36'0 0.0
2019-Jan-14 14:30N 55°42' E 012°36'0 0.0
2019-Jan-14 14:00N 55°42' E 012°36'0 0.0
2019-Jan-14 13:30N 55°42' E 012°36'0 0.0
2019-Jan-14 13:00N 55°42' E 012°36'0 0.0
2019-Jan-14 12:30N 55°42' E 012°36'0 0.0
2019-Jan-14 12:00N 55°42' E 012°36'0 0.0
2019-Jan-14 11:30N 55°42' E 012°36'0 0.0
2019-Jan-14 11:00N 55°42' E 012°36'0 0.0
2019-Jan-14 10:30N 55°42' E 012°36'0 0.0
2019-Jan-14 10:00N 55°42' E 012°36'0 0.0
2019-Jan-14 09:30N 55°42' E 012°36'0 0.0
2019-Jan-14 09:00N 55°42' E 012°36'0 0.7
2019-Jan-14 08:31N 55°42' E 012°36'611.1
2019-Jan-14 08:00N 55°47' E 012°42'816.2
2019-Jan-14 07:30N 55°55' E 012°38'816.9
2019-Jan-14 07:00N 56°03' E 012°39'917.5
2019-Jan-14 06:31N 56°10' E 012°29'6716.6
2019-Jan-14 02:29N 57°14' E 011°53'816.7
2019-Jan-14 02:00N 57°21' E 011°46'816.7
2019-Jan-14 01:30N 57°28' E 011°38'816.3
2019-Jan-14 01:00N 57°35' E 011°32'816.9
2019-Jan-14 00:31N 57°43' E 011°26'816.8
2019-Jan-14 00:00N 57°51' E 011°21'816.6
2019-Jan-13 23:30N 57°59' E 011°16'815.7
2019-Jan-13 23:00N 58°06' E 011°10'815.3
2019-Jan-13 22:31N 58°13' E 011°05'815.3
2019-Jan-13 22:00N 58°20' E 010°60'815.4
2019-Jan-13 21:30N 58°28' E 010°55'  
Track history (hours):
 
Tides and Currents Weather Stations Pressure Air Temp Water Temp Dewpoint Dewpoint Depression Visibility Wind Speed Wind Dir Waves Ship Positions

Crown Of Scandinavia

Last reported at 2019-Jan-23 21:30 UTC. Time now 2019-Jan-23 21:51 UTC.
Position N 58°25' E 010°40'.

Length 171 m; draft 6.3 m.

Type: Ship. MMSI: 219592000.

Date/timePositionNaut miles runAvg speedWind from/ knotsBaromVisibWave heightAir tempDewpointWater temp
2019-Jan-23 21:30N 58°25' E 010°40'816.5
2019-Jan-23 21:00N 58°33' E 010°37'816.7
2019-Jan-23 20:30N 58°41' E 010°36'917.0
2019-Jan-23 20:00N 58°50' E 010°35'917.1
2019-Jan-23 19:30N 58°58' E 010°36'815.7
2019-Jan-23 19:00N 59°06' E 010°38'816.2
2019-Jan-23 18:30N 59°14' E 010°37'816.7
2019-Jan-23 18:00N 59°23' E 010°34'816.8
2019-Jan-23 17:30N 59°31' E 010°35'714.9
2019-Jan-23 17:00N 59°38' E 010°37'713.7
2019-Jan-23 16:30N 59°45' E 010°33'815.8
2019-Jan-23 16:01N 59°52' E 010°38'4 7.6
2019-Jan-23 15:30N 59°54' E 010°45'0 0.0
2019-Jan-23 15:00N 59°54' E 010°45'0 0.0
2019-Jan-23 14:30N 59°54' E 010°45'0 0.0
2019-Jan-23 14:00N 59°54' E 010°45'0 0.0
2019-Jan-23 13:30N 59°54' E 010°45'0 0.0
2019-Jan-23 13:00N 59°54' E 010°45'0 0.0
2019-Jan-23 12:30N 59°54' E 010°45'0 0.0
2019-Jan-23 12:00N 59°54' E 010°45'0 0.0
2019-Jan-23 11:30N 59°54' E 010°45'0 0.0
2019-Jan-23 11:00N 59°54' E 010°45'0 0.0
2019-Jan-23 10:30N 59°54' E 010°45'0 0.0
2019-Jan-23 10:00N 59°54' E 010°45'0 0.0
2019-Jan-23 09:30N 59°54' E 010°45'0 0.0
2019-Jan-23 09:00N 59°54' E 010°45'0 0.7
2019-Jan-23 08:30N 59°54' E 010°44'713.8
2019-Jan-23 08:01N 59°49' E 010°35'714.9
2019-Jan-23 07:31N 59°41' E 010°36'714.5
2019-Jan-23 07:00N 59°34' E 010°38'816.1
2019-Jan-23 06:30N 59°27' E 010°34'815.7
2019-Jan-23 06:00N 59°19' E 010°36'816.0
2019-Jan-23 05:30N 59°11' E 010°39'816.0
2019-Jan-23 05:00N 59°03' E 010°39'816.0
2019-Jan-23 04:30N 58°55' E 010°39'816.4
2019-Jan-23 04:00N 58°47' E 010°39'816.2
2019-Jan-23 03:29N 58°38' E 010°38'816.4
2019-Jan-23 03:00N 58°30' E 010°38'816.3
2019-Jan-23 02:30N 58°23' E 010°43'816.6
2019-Jan-23 02:00N 58°15' E 010°49'816.6
2019-Jan-23 01:30N 58°07' E 010°54'816.3
2019-Jan-23 01:00N 57°59' E 010°59'816.2
2019-Jan-23 00:30N 57°52' E 011°04'816.4
2019-Jan-23 00:00N 57°44' E 011°10'816.2
2019-Jan-22 23:30N 57°37' E 011°16'816.9
2019-Jan-22 23:00N 57°30' E 011°26'816.6
2019-Jan-22 22:30N 57°24' E 011°36'917.1
2019-Jan-22 22:00N 57°17' E 011°46'816.4
2019-Jan-22 21:30N 57°11' E 011°55'816.6
2019-Jan-22 21:00N 57°03' E 012°01'5516.6
2019-Jan-22 17:42N 56°10' E 012°30'418.7
2019-Jan-22 17:30N 56°07' E 012°33'917.5
2019-Jan-22 17:00N 55°60' E 012°41'816.9
2019-Jan-22 16:30N 55°52' E 012°45'815.5
2019-Jan-22 16:00N 55°44' E 012°40'3 6.5
2019-Jan-22 15:30N 55°42' E 012°36'0 0.0
2019-Jan-22 15:00N 55°42' E 012°36'0 0.0
2019-Jan-22 14:30N 55°42' E 012°36'0 0.0
2019-Jan-22 14:00N 55°42' E 012°36'0 0.0
2019-Jan-22 13:27N 55°42' E 012°36'0 0.0
2019-Jan-22 12:57N 55°42' E 012°36'0 0.0
2019-Jan-22 12:30N 55°42' E 012°36'0 0.0
2019-Jan-22 12:00N 55°42' E 012°36'0 0.0
2019-Jan-22 11:30N 55°42' E 012°36'0 0.0
2019-Jan-22 11:00N 55°42' E 012°36'0 0.0
2019-Jan-22 10:30N 55°42' E 012°36'0 0.0
2019-Jan-22 10:00N 55°42' E 012°36'0 0.0
2019-Jan-22 09:24N 55°42' E 012°36'0 0.0
2019-Jan-22 09:00N 55°42' E 012°36'0 0.7
2019-Jan-22 08:30N 55°42' E 012°36'510.8
2019-Jan-22 08:00N 55°47' E 012°42'714.8
2019-Jan-22 07:30N 55°54' E 012°39'815.0
2019-Jan-22 07:00N 56°02' E 012°40'713.9
2019-Jan-22 06:30N 56°07' E 012°32'5816.0
2019-Jan-22 02:52N 56°59' E 011°43'616.5
2019-Jan-22 02:30N 57°04' E 011°38'816.4
2019-Jan-22 02:00N 57°12' E 011°34'816.8
2019-Jan-22 01:30N 57°20' E 011°29'816.8
2019-Jan-22 01:00N 57°28' E 011°23'816.3
2019-Jan-22 00:30N 57°35' E 011°17'816.7
2019-Jan-22 00:00N 57°43' E 011°10'816.6
2019-Jan-21 23:30N 57°50' E 011°04'816.4
2019-Jan-21 23:00N 57°58' E 010°59'816.1
2019-Jan-21 22:30N 58°05' E 010°52'816.5
2019-Jan-21 22:00N 58°12' E 010°44'816.8
2019-Jan-21 21:30N 58°20' E 010°39'816.6
2019-Jan-21 21:00N 58°28' E 010°35'816.4
2019-Jan-21 20:30N 58°36' E 010°34'816.8
2019-Jan-21 20:00N 58°45' E 010°34'816.9
2019-Jan-21 19:30N 58°53' E 010°35'816.9
2019-Jan-21 19:00N 59°02' E 010°37'816.9
2019-Jan-21 18:30N 59°10' E 010°38'917.2
2019-Jan-21 18:00N 59°18' E 010°36'917.4
2019-Jan-21 17:30N 59°27' E 010°33'917.4
2019-Jan-21 17:00N 59°35' E 010°38'714.2
2019-Jan-21 16:30N 59°42' E 010°35'815.8
2019-Jan-21 16:00N 59°50' E 010°35'612.7
2019-Jan-21 15:30N 59°54' E 010°45'0 0.4
2019-Jan-21 14:58N 59°54' E 010°45'0 0.0
2019-Jan-21 14:28N 59°54' E 010°45'0 0.0
2019-Jan-21 13:58N 59°54' E 010°45'0 0.0
2019-Jan-21 13:28N 59°54' E 010°45'0 0.0
2019-Jan-21 12:58N 59°54' E 010°45'0 0.0
2019-Jan-21 12:28N 59°54' E 010°45'0 0.0
2019-Jan-21 11:58N 59°54' E 010°45'0 0.0
2019-Jan-21 11:28N 59°54' E 010°45'0 0.0
2019-Jan-21 10:58N 59°54' E 010°45'0 0.0
2019-Jan-21 10:28N 59°54' E 010°45'0 0.0
2019-Jan-21 09:58N 59°54' E 010°45'0 0.0
2019-Jan-21 09:28N 59°54' E 010°45'0 0.0
2019-Jan-21 08:58N 59°54' E 010°45'0 0.5
2019-Jan-21 08:30N 59°54' E 010°44'713.8
2019-Jan-21 08:00N 59°49' E 010°35'715.0
2019-Jan-21 07:31N 59°42' E 010°36'714.8
2019-Jan-21 07:00N 59°34' E 010°38'816.2
2019-Jan-21 06:30N 59°26' E 010°34'816.2
2019-Jan-21 06:00N 59°18' E 010°36'816.2
2019-Jan-21 05:30N 59°10' E 010°39'816.1
2019-Jan-21 05:00N 59°02' E 010°39'816.2
2019-Jan-21 04:31N 58°54' E 010°38'815.7
2019-Jan-21 04:00N 58°47' E 010°37'816.4
2019-Jan-21 03:29N 58°38' E 010°38'816.1
2019-Jan-21 03:00N 58°30' E 010°38'816.1
2019-Jan-21 02:30N 58°22' E 010°43'816.0
2019-Jan-21 02:00N 58°16' E 010°50'816.0
2019-Jan-21 01:30N 58°08' E 010°53'816.6
2019-Jan-21 01:00N 57°60' E 010°58'816.3
2019-Jan-21 00:30N 57°52' E 011°04'816.4
2019-Jan-21 00:00N 57°45' E 011°10'816.3
2019-Jan-20 23:30N 57°38' E 011°17'816.5
2019-Jan-20 23:01N 57°32' E 011°28'816.8
2019-Jan-20 22:30N 57°25' E 011°38'816.6
2019-Jan-20 22:01N 57°18' E 011°47'816.4
2019-Jan-20 21:30N 57°11' E 011°54'816.5
2019-Jan-20 21:01N 57°04' E 011°60'816.4
2019-Jan-20 20:30N 56°56' E 012°06'816.6
2019-Jan-20 20:00N 56°48' E 012°11'816.1
2019-Jan-20 19:30N 56°41' E 012°15'3216.2
2019-Jan-20 17:31N 56°09' E 012°29'017.9
2019-Jan-20 17:30N 56°09' E 012°29'917.6
2019-Jan-20 17:00N 56°03' E 012°40'917.2
2019-Jan-20 16:30N 55°54' E 012°44'816.7
2019-Jan-20 16:00N 55°46' E 012°42'510.6
2019-Jan-20 15:30N 55°42' E 012°36'0 0.0
2019-Jan-20 14:58N 55°42' E 012°36'0 0.0
2019-Jan-20 14:28N 55°42' E 012°36'0 0.0
2019-Jan-20 13:55N 55°42' E 012°36'0 0.0
2019-Jan-20 13:28N 55°42' E 012°36'0 0.0
2019-Jan-20 12:58N 55°42' E 012°36'0 0.0
2019-Jan-20 12:28N 55°42' E 012°36'0 0.0
2019-Jan-20 11:58N 55°42' E 012°36'0 0.0
2019-Jan-20 11:28N 55°42' E 012°36'0 0.0
2019-Jan-20 10:58N 55°42' E 012°36'0 0.0
2019-Jan-20 10:28N 55°42' E 012°36'0 0.0
2019-Jan-20 09:58N 55°42' E 012°36'0 0.0
2019-Jan-20 09:28N 55°42' E 012°36'0 0.0
2019-Jan-20 08:58N 55°42' E 012°36'0 0.7
2019-Jan-20 08:30N 55°42' E 012°36'510.5
2019-Jan-20 08:01N 55°47' E 012°41'714.5
2019-Jan-20 07:30N 55°54' E 012°39'714.7
2019-Jan-20 07:00N 56°01' E 012°40'713.9
2019-Jan-20 06:30N 56°07' E 012°32'814.9
2019-Jan-20 06:00N 56°12' E 012°24'4915.9
2019-Jan-20 02:54N 56°56' E 011°44'616.4
2019-Jan-20 02:31N 57°02' E 011°39'816.4
2019-Jan-20 02:00N 57°10' E 011°34'917.1
2019-Jan-20 01:31N 57°18' E 011°31'917.2
2019-Jan-20 01:01N 57°26' E 011°25'816.8
2019-Jan-20 00:31N 57°34' E 011°19'816.8
2019-Jan-20 00:01N 57°42' E 011°12'816.9
2019-Jan-19 23:31N 57°50' E 011°06'816.9
2019-Jan-19 23:01N 57°57' E 011°01'816.6
2019-Jan-19 22:31N 58°05' E 010°55'816.5
2019-Jan-19 22:00N 58°13' E 010°50'816.6
2019-Jan-19 21:30N 58°21' E 010°44'816.7
2019-Jan-19 21:00N 58°29' E 010°38'817.0
2019-Jan-19 20:30N 58°37' E 010°37'816.8
2019-Jan-19 20:01N 58°45' E 010°35'816.8
2019-Jan-19 19:31N 58°54' E 010°35'917.2
2019-Jan-19 19:01N 59°02' E 010°37'917.0
2019-Jan-19 18:30N 59°11' E 010°38'917.2
2019-Jan-19 18:00N 59°19' E 010°35'816.9
2019-Jan-19 17:31N 59°28' E 010°34'816.8
2019-Jan-19 17:01N 59°36' E 010°38'714.7
2019-Jan-19 16:31N 59°43' E 010°35'815.9
2019-Jan-19 16:00N 59°51' E 010°36'611.1
2019-Jan-19 15:30N 59°54' E 010°45'0 0.0
2019-Jan-19 15:00N 59°54' E 010°45'0 0.0
2019-Jan-19 14:30N 59°54' E 010°45'0 0.0
2019-Jan-19 14:00N 59°54' E 010°45'0 0.0
2019-Jan-19 13:30N 59°54' E 010°45'0 0.0
2019-Jan-19 13:00N 59°54' E 010°45'0 0.0
2019-Jan-19 12:30N 59°54' E 010°45'0 0.0
2019-Jan-19 12:00N 59°54' E 010°45'0 0.0
2019-Jan-19 11:30N 59°54' E 010°45'0 0.0
2019-Jan-19 11:00N 59°54' E 010°45'0 0.0
2019-Jan-19 10:30N 59°54' E 010°45'0 0.0
2019-Jan-19 10:00N 59°54' E 010°45'0 0.0
2019-Jan-19 09:30N 59°54' E 010°45'0 0.0
2019-Jan-19 09:00N 59°54' E 010°45'0 0.4
2019-Jan-19 08:30N 59°54' E 010°45'611.2
2019-Jan-19 08:01N 59°50' E 010°36'714.9
2019-Jan-19 07:31N 59°43' E 010°35'713.4
2019-Jan-19 07:00N 59°36' E 010°38'815.6
2019-Jan-19 06:30N 59°29' E 010°35'816.0
2019-Jan-19 06:00N 59°21' E 010°36'816.3
2019-Jan-19 05:30N 59°13' E 010°38'816.2
2019-Jan-19 05:00N 59°05' E 010°40'815.9
2019-Jan-19 04:30N 58°57' E 010°42'816.0
2019-Jan-19 04:00N 58°49' E 010°45'816.1
2019-Jan-19 03:30N 58°41' E 010°47'816.7
2019-Jan-19 03:00N 58°33' E 010°50'816.9
2019-Jan-19 02:30N 58°24' E 010°53'816.7
2019-Jan-19 02:00N 58°16' E 010°56'816.8
2019-Jan-19 01:30N 58°08' E 010°59'816.6
2019-Jan-19 01:00N 57°60' E 011°02'816.1
2019-Jan-19 00:30N 57°52' E 011°06'815.8
2019-Jan-19 00:00N 57°45' E 011°14'816.2
2019-Jan-18 23:30N 57°38' E 011°20'817.0
2019-Jan-18 23:00N 57°30' E 011°24'917.1
2019-Jan-18 22:30N 57°22' E 011°31'816.9
2019-Jan-18 22:00N 57°14' E 011°37'917.0
2019-Jan-18 21:30N 57°06' E 011°41'6216.3
2019-Jan-18 17:42N 56°10' E 012°29'316.4
2019-Jan-18 17:30N 56°07' E 012°32'816.1
2019-Jan-18 17:00N 56°01' E 012°41'816.5
2019-Jan-18 16:30N 55°53' E 012°45'815.8
2019-Jan-18 16:00N 55°45' E 012°41'4 8.1
2019-Jan-18 15:30N 55°42' E 012°36'0 0.0
2019-Jan-18 15:00N 55°42' E 012°36'0 0.0
2019-Jan-18 14:30N 55°42' E 012°36'0 0.0
2019-Jan-18 14:00N 55°42' E 012°36'0 0.0
2019-Jan-18 13:30N 55°42' E 012°36'0 0.0
2019-Jan-18 13:00N 55°42' E 012°36'0 0.0
2019-Jan-18 12:30N 55°42' E 012°36'0 0.0
2019-Jan-18 12:00N 55°42' E 012°36'0 0.0
2019-Jan-18 11:30N 55°42' E 012°36'0 0.0
2019-Jan-18 10:57N 55°42' E 012°36'0 0.0
2019-Jan-18 10:30N 55°42' E 012°36'0 0.0
2019-Jan-18 10:00N 55°42' E 012°36'0 0.0
2019-Jan-18 09:27N 55°42' E 012°36'0 0.0
2019-Jan-18 09:00N 55°42' E 012°36'0 0.8
2019-Jan-18 08:30N 55°42' E 012°36'612.2
2019-Jan-18 08:00N 55°48' E 012°42'815.2
2019-Jan-18 07:30N 55°55' E 012°39'714.9
2019-Jan-18 07:00N 56°02' E 012°39'714.8
2019-Jan-18 06:31N 56°08' E 012°30'815.2
2019-Jan-18 06:00N 56°15' E 012°25'6215.6
2019-Jan-18 02:02N 57°14' E 011°52'016.1
2019-Jan-18 02:00N 57°15' E 011°52'816.3
2019-Jan-18 01:30N 57°22' E 011°44'816.2
2019-Jan-18 01:00N 57°29' E 011°37'816.1
2019-Jan-18 00:30N 57°36' E 011°31'816.2
2019-Jan-18 00:00N 57°44' E 011°26'816.1
2019-Jan-17 23:30N 57°51' E 011°20'816.1
2019-Jan-17 23:00N 57°59' E 011°15'816.3
2019-Jan-17 22:30N 58°07' E 011°10'816.0
2019-Jan-17 22:00N 58°14' E 011°05'815.8
2019-Jan-17 21:30N 58°22' E 010°60'816.0
2019-Jan-17 21:00N 58°29' E 010°54'816.1
2019-Jan-17 20:30N 58°37' E 010°49'816.8
2019-Jan-17 20:00N 58°45' E 010°46'816.8
2019-Jan-17 19:30N 58°53' E 010°43'816.8
2019-Jan-17 19:00N 59°02' E 010°41'816.8
2019-Jan-17 18:30N 59°10' E 010°38'917.4
2019-Jan-17 18:00N 59°18' E 010°35'816.7
2019-Jan-17 17:30N 59°27' E 010°33'816.9
2019-Jan-17 17:00N 59°35' E 010°38'815.3
2019-Jan-17 16:30N 59°42' E 010°35'816.5
2019-Jan-17 16:00N 59°50' E 010°35'612.1
2019-Jan-17 15:30N 59°54' E 010°45'0 0.4
2019-Jan-17 15:00N 59°54' E 010°45'0 0.0
2019-Jan-17 14:30N 59°54' E 010°45'0 0.0
2019-Jan-17 14:00N 59°54' E 010°45'0 0.0
2019-Jan-17 13:30N 59°54' E 010°45'0 0.0
2019-Jan-17 13:00N 59°54' E 010°45'0 0.0
2019-Jan-17 12:30N 59°54' E 010°45'0 0.0
2019-Jan-17 12:00N 59°54' E 010°45'0 0.0
2019-Jan-17 11:30N 59°54' E 010°45'0 0.0
2019-Jan-17 11:00N 59°54' E 010°45'0 0.0
2019-Jan-17 10:30N 59°54' E 010°45'0 0.0
2019-Jan-17 10:00N 59°54' E 010°45'0 0.0
2019-Jan-17 09:30N 59°54' E 010°45'0 0.0
2019-Jan-17 09:00N 59°54' E 010°45'0 0.4
2019-Jan-17 08:30N 59°54' E 010°44'612.7
2019-Jan-17 08:00N 59°50' E 010°35'714.0
2019-Jan-17 07:30N 59°43' E 010°36'713.2
2019-Jan-17 07:00N 59°36' E 010°38'714.6
2019-Jan-17 06:30N 59°29' E 010°35'815.4
2019-Jan-17 06:00N 59°21' E 010°35'815.3
2019-Jan-17 05:30N 59°14' E 010°38'815.5
2019-Jan-17 05:01N 59°06' E 010°40'815.5
2019-Jan-17 04:30N 58°58' E 010°42'815.5
2019-Jan-17 04:00N 58°51' E 010°44'1615.5
2019-Jan-17 03:00N 58°35' E 010°50'815.9
2019-Jan-17 02:30N 58°28' E 010°55'816.8
2019-Jan-17 02:00N 58°20' E 010°60'917.2
2019-Jan-17 01:30N 58°12' E 011°06'917.2
2019-Jan-17 01:00N 58°04' E 011°11'816.9
2019-Jan-17 00:30N 57°56' E 011°17'816.2
2019-Jan-17 00:00N 57°49' E 011°22'815.9
2019-Jan-16 23:30N 57°41' E 011°28'816.6
2019-Jan-16 23:00N 57°33' E 011°30'917.1
2019-Jan-16 22:30N 57°24' E 011°32'816.9
2019-Jan-16 22:00N 57°16' E 011°35'817.0
2019-Jan-16 21:30N 57°08' E 011°40'6216.5
2019-Jan-16 17:47N 56°12' E 012°27'516.8
2019-Jan-16 17:30N 56°08' E 012°31'816.7
2019-Jan-16 17:00N 56°01' E 012°40'816.9
2019-Jan-16 16:30N 55°53' E 012°44'816.0
2019-Jan-16 16:00N 55°46' E 012°41'5 9.1
2019-Jan-16 15:30N 55°42' E 012°36'0 0.0
2019-Jan-16 15:00N 55°42' E 012°36'0 0.0
2019-Jan-16 14:30N 55°42' E 012°36'0 0.0
2019-Jan-16 13:57N 55°42' E 012°36'0 0.0
2019-Jan-16 13:30N 55°42' E 012°36'0 0.0
2019-Jan-16 13:00N 55°42' E 012°36'0 0.0
2019-Jan-16 12:30N 55°42' E 012°36'0 0.0
2019-Jan-16 12:00N 55°42' E 012°36'0 0.0
2019-Jan-16 11:27N 55°42' E 012°36'0 0.0
2019-Jan-16 11:00N 55°42' E 012°36'0 0.0
2019-Jan-16 10:21N 55°42' E 012°36'0 0.0
2019-Jan-16 10:00N 55°42' E 012°36'0 0.0
2019-Jan-16 09:30N 55°42' E 012°36'0 0.0
2019-Jan-16 08:54N 55°42' E 012°36'1 2.9
2019-Jan-16 08:30N 55°43' E 012°38'713.3
2019-Jan-16 08:00N 55°49' E 012°41'815.7
2019-Jan-16 07:30N 55°57' E 012°38'914.3
2019-Jan-16 06:52N 56°06' E 012°34'616.2
2019-Jan-16 06:29N 56°11' E 012°28'6516.4
2019-Jan-16 02:32N 57°13' E 011°53'016.8
2019-Jan-16 02:30N 57°13' E 011°52'816.5
2019-Jan-16 02:00N 57°20' E 011°44'816.5
2019-Jan-16 01:30N 57°27' E 011°36'816.6
2019-Jan-16 01:00N 57°34' E 011°27'816.6
2019-Jan-16 00:30N 57°41' E 011°19'816.7
2019-Jan-16 00:00N 57°48' E 011°11'816.8
2019-Jan-15 23:30N 57°55' E 011°02'816.2
2019-Jan-15 23:00N 58°03' E 010°57'816.1
2019-Jan-15 22:30N 58°10' E 010°51'816.4
2019-Jan-15 22:00N 58°18' E 010°46'816.1
2019-Jan-15 21:30N 58°26' E 010°40'815.9
2019-Jan-15 21:00N 58°33' E 010°37'816.1
2019-Jan-15 20:30N 58°41' E 010°36'815.8
2019-Jan-15 20:00N 58°49' E 010°35'816.2
2019-Jan-15 19:30N 58°57' E 010°36'815.8
2019-Jan-15 19:00N 59°05' E 010°37'816.1
2019-Jan-15 18:30N 59°13' E 010°37'816.3
2019-Jan-15 18:00N 59°21' E 010°34'815.9
2019-Jan-15 17:30N 59°29' E 010°34'815.7
2019-Jan-15 17:00N 59°37' E 010°38'815.1
2019-Jan-15 16:30N 59°44' E 010°33'816.0
2019-Jan-15 16:00N 59°52' E 010°37'4 8.6
2019-Jan-15 15:30N 59°54' E 010°45'0 0.0
2019-Jan-15 15:00N 59°54' E 010°45'0 0.0
2019-Jan-15 14:30N 59°54' E 010°45'0 0.0
2019-Jan-15 14:00N 59°54' E 010°45'0 0.0
2019-Jan-15 13:30N 59°54' E 010°45'0 0.0
2019-Jan-15 13:00N 59°54' E 010°45'0 0.0
2019-Jan-15 12:30N 59°54' E 010°45'0 0.0
2019-Jan-15 12:00N 59°54' E 010°45'0 0.0
2019-Jan-15 11:30N 59°54' E 010°45'0 0.0
2019-Jan-15 11:00N 59°54' E 010°45'0 0.0
2019-Jan-15 10:30N 59°54' E 010°45'0 0.0
2019-Jan-15 10:00N 59°54' E 010°45'0 0.0
2019-Jan-15 09:30N 59°54' E 010°45'0 0.0
2019-Jan-15 09:00N 59°54' E 010°45'1 1.9
2019-Jan-15 08:30N 59°54' E 010°43'815.1
2019-Jan-15 08:00N 59°48' E 010°35'714.5
2019-Jan-15 07:31N 59°40' E 010°37'714.3
2019-Jan-15 07:01N 59°33' E 010°37'816.1
2019-Jan-15 06:31N 59°25' E 010°34'816.0
2019-Jan-15 06:01N 59°17' E 010°37'816.3
2019-Jan-15 05:31N 59°09' E 010°40'816.9
2019-Jan-15 05:01N 59°01' E 010°42'917.4
2019-Jan-15 04:31N 58°52' E 010°44'917.6
2019-Jan-15 04:00N 58°44' E 010°45'917.1
2019-Jan-15 03:30N 58°35' E 010°49'917.4
2019-Jan-15 03:00N 58°27' E 010°54'917.5
2019-Jan-15 02:30N 58°19' E 010°59'917.4
2019-Jan-15 02:01N 58°11' E 011°05'917.2
2019-Jan-15 01:31N 58°02' E 011°10'816.8
2019-Jan-15 01:01N 57°54' E 011°14'816.4
2019-Jan-15 00:31N 57°46' E 011°18'816.1
2019-Jan-15 00:01N 57°39' E 011°22'816.1
2019-Jan-14 23:31N 57°31' E 011°26'815.9
2019-Jan-14 23:01N 57°23' E 011°31'816.1
2019-Jan-14 22:31N 57°16' E 011°35'815.7
2019-Jan-14 22:01N 57°08' E 011°40'916.0
2019-Jan-14 21:28N 57°00' E 011°46'5415.3
2019-Jan-14 17:57N 56°12' E 012°28'714.7
2019-Jan-14 17:30N 56°06' E 012°34'714.0
2019-Jan-14 17:01N 56°01' E 012°41'815.2
2019-Jan-14 16:31N 55°53' E 012°44'815.7
2019-Jan-14 16:01N 55°46' E 012°41'5 9.2
2019-Jan-14 15:30N 55°42' E 012°36'0 0.0
2019-Jan-14 15:00N 55°42' E 012°36'0 0.0
2019-Jan-14 14:30N 55°42' E 012°36'0 0.0
2019-Jan-14 14:00N 55°42' E 012°36'0 0.0
2019-Jan-14 13:30N 55°42' E 012°36'0 0.0
2019-Jan-14 13:00N 55°42' E 012°36'0 0.0
2019-Jan-14 12:30N 55°42' E 012°36'0 0.0
2019-Jan-14 12:00N 55°42' E 012°36'0 0.0
2019-Jan-14 11:30N 55°42' E 012°36'0 0.0
2019-Jan-14 11:00N 55°42' E 012°36'0 0.0
2019-Jan-14 10:30N 55°42' E 012°36'0 0.0
2019-Jan-14 10:00N 55°42' E 012°36'0 0.0
2019-Jan-14 09:30N 55°42' E 012°36'0 0.0
2019-Jan-14 09:00N 55°42' E 012°36'0 0.7
2019-Jan-14 08:31N 55°42' E 012°36'611.1
2019-Jan-14 08:00N 55°47' E 012°42'816.2
2019-Jan-14 07:30N 55°55' E 012°38'816.9
2019-Jan-14 07:00N 56°03' E 012°39'917.5
2019-Jan-14 06:31N 56°10' E 012°29'6716.6
2019-Jan-14 02:29N 57°14' E 011°53'816.7
2019-Jan-14 02:00N 57°21' E 011°46'816.7
2019-Jan-14 01:30N 57°28' E 011°38'816.3
2019-Jan-14 01:00N 57°35' E 011°32'816.9
2019-Jan-14 00:31N 57°43' E 011°26'816.8
2019-Jan-14 00:00N 57°51' E 011°21'816.6
2019-Jan-13 23:30N 57°59' E 011°16'815.7
2019-Jan-13 23:00N 58°06' E 011°10'815.3
2019-Jan-13 22:31N 58°13' E 011°05'815.3
2019-Jan-13 22:00N 58°20' E 010°60'815.4
2019-Jan-13 21:30N 58°28' E 010°55'  

Dump ship's entire track history